This is the latest recevied weather packets stored in our database for station/object LRTR. If no packets are shown the sender has not sent any weather packets the latest 10 day(s).
| Time | Temp. | Humidity | Pressure | Rain* | Wind** | Luminosity | Snow |
|---|---|---|---|---|---|---|---|
| 1777964585 | 17.78° C | 49% | 1016 hPa | - | - | - | - |
| 1777963685 | 16.11° C | 59% | 1016 hPa | - | - | - | - |
| 1777962785 | 16.11° C | 59% | 1016 hPa | - | - | - | - |
| 1777961885 | 13.89° C | 63% | 1016 hPa | - | - | - | - |
| 1777960985 | 13.89° C | 63% | 1016 hPa | - | - | - | - |
| 1777960085 | 12.22° C | 72% | 1016 hPa | - | - | - | - |
| 1777959185 | 12.22° C | 72% | 1016 hPa | - | - | - | - |
| 1777958285 | 10° C | 82% | 1016 hPa | - | - | - | - |
| 1777957385 | 10° C | 82% | 1016 hPa | - | - | - | - |
| 1777956485 | 8.89° C | 82% | 1016 hPa | - | - | - | - |
| 1777955585 | 8.89° C | 82% | 1016 hPa | - | - | - | - |
| 1777954685 | 7.78° C | 82% | 1016 hPa | - | - | - | - |
| 1777953784 | 7.78° C | 82% | 1016 hPa | - | - | - | - |
| 1777952885 | 6.11° C | 87% | 1016 hPa | - | - | - | - |
| 1777951985 | 6.11° C | 87% | 1016 hPa | - | - | - | - |
| 1777951085 | 7.22° C | 81% | 1016 hPa | - | - | - | - |
| 1777950185 | 7.22° C | 81% | 1016 hPa | - | - | - | - |
| 1777949285 | 6.11° C | 87% | 1016 hPa | - | - | - | - |
| 1777948385 | 6.11° C | 87% | 1016 hPa | - | - | - | - |
| 1777947485 | 6.11° C | 87% | 1016 hPa | - | - | - | - |
| 1777946585 | 6.11° C | 87% | 1016 hPa | - | - | - | - |
| 1777945685 | 6.11° C | 87% | 1016 hPa | - | - | - | - |
| 1777944785 | 6.11° C | 87% | 1016 hPa | - | - | - | - |
| 1777943885 | 7.22° C | 81% | 1015 hPa | - | - | - | - |
| 1777942986 | 7.22° C | 81% | 1015 hPa | - | - | - | - |
* Rain since midnight (hover to see other rain measurements)
** Current wind speed in m/s (hover to see current wind gust speed)